Pine Galaxy — C6TT5 — position and weather

sailwx.info

Track history (hours):
 
Tides and Currents Weather Stations Pressure Air Temp Water Temp Dewpoint Dewpoint Depression Visibility Wind Speed Wind Dir Waves Ship Positions

Pine Galaxy

Last reported at 2016-Dec-04 19:31 UTC. Time now 2016-Dec-06 16:04 UTC.
Position N 22°25' E 119°48'.

Length 147 m; draft 6.8 m.

Type: Tanker. MMSI: 311772000.

Date/timePositionNaut miles runAvg speedWind from/ knotsBaromVisibWave heightAir tempDewpointWater temp
2016-Dec-04 19:31N 22°25' E 119°48'1212.9
2016-Dec-04 18:33N 22°29' E 120°00'1313.0
2016-Dec-04 17:34N 22°33' E 120°14'4 4.2
2016-Dec-04 16:33N 22°35' E 120°18'0 0.0
2016-Dec-04 01:12N 22°35' E 120°18'0 0.0
2016-Dec-04 00:18N 22°35' E 120°18'1 0.7
2016-Dec-03 23:33N 22°35' E 120°17'5 5.1
2016-Dec-03 22:33N 22°38' E 120°12'4 4.5
2016-Dec-03 21:33N 22°39' E 120°08'5 5.2
2016-Dec-03 20:33N 22°42' E 120°03'6 5.9
2016-Dec-03 19:33N 22°46' E 119°58'6 6.4
2016-Dec-03 18:33N 22°51' E 119°55'  
Track history (hours):
 
Tides and Currents Weather Stations Pressure Air Temp Water Temp Dewpoint Dewpoint Depression Visibility Wind Speed Wind Dir Waves Ship Positions

Pine Galaxy

Last reported at 2016-Dec-04 19:31 UTC. Time now 2016-Dec-06 16:04 UTC.
Position N 22°25' E 119°48'.

Length 147 m; draft 6.8 m.

Type: Tanker. MMSI: 311772000.

Date/timePositionNaut miles runAvg speedWind from/ knotsBaromVisibWave heightAir tempDewpointWater temp
2016-Dec-04 19:31N 22°25' E 119°48'1212.9
2016-Dec-04 18:33N 22°29' E 120°00'1313.0
2016-Dec-04 17:34N 22°33' E 120°14'4 4.2
2016-Dec-04 16:33N 22°35' E 120°18'0 0.0
2016-Dec-04 01:12N 22°35' E 120°18'0 0.0
2016-Dec-04 00:18N 22°35' E 120°18'1 0.7
2016-Dec-03 23:33N 22°35' E 120°17'5 5.1
2016-Dec-03 22:33N 22°38' E 120°12'4 4.5
2016-Dec-03 21:33N 22°39' E 120°08'5 5.2
2016-Dec-03 20:33N 22°42' E 120°03'6 5.9
2016-Dec-03 19:33N 22°46' E 119°58'6 6.4
2016-Dec-03 18:33N 22°51' E 119°55'  

Dump ship's entire track history